»·PEaware :: N9273T KSBA-KRNM

N9273T :: KSBA-KRNM

FLIGHT INFORMATION

Flight Status: Arrived
Operator: Privately registered:
United States
More flights under this callsign
Pilot: Jim L. (28297)
Aircraft: CIRRUS SR-20
(SR20)
More flights by this aircraft type
Origin: KSBA Santa Barbara Mun
United States
Destination: KRNM Ramona
United States
More flights between these airports :: More routes between these airports
Route: HENER V186 DARTS V597 OCN V208 JLI
File this flight plan on PilotEdge
Remarks: TEC route SBAP32
Altitude:
(Current/Filed)
9,000ft
Speed:
(Current/Filed)
135kts
Departed: 14-Nov-20 07:06 PM
Arrived: 14-Nov-20 08:27 PM
Distance/Time
Traveled:
168nm/1:21
Distance/Time
To Go:
Arrived

Flight Plot

Page will automatically refresh every two minutes.

Flight plan parsing failed; only flown route is shown


Map Options




Map Legend


Flown Route
Filed Route
Departure Airport
Arrival Airport
Navaid (VOR, NDB)
Fix

Horizontal Profiles

Position Reports

Time Latitude Longitude Heading Altitude Ground
Speed
14-Nov-20 18:54 34.432568 -119.835092 71 16ft 0kts
14-Nov-20 18:55 34.432568 -119.835092 71 16ft 0kts
14-Nov-20 18:56 34.432568 -119.835092 71 16ft 0kts
14-Nov-20 18:57 34.432568 -119.835092 71 16ft 0kts
14-Nov-20 18:58 34.432568 -119.835091 71 16ft 0kts
14-Nov-20 18:59 34.432568 -119.835091 71 16ft 0kts
14-Nov-20 19:00 34.432568 -119.835092 71 16ft 0kts
14-Nov-20 19:01 34.432562 -119.835104 193 16ft 4kts
14-Nov-20 19:02 34.429818 -119.835310 174 16ft 11kts
14-Nov-20 19:03 34.428845 -119.834663 181 16ft 0kts
14-Nov-20 19:04 34.427962 -119.835100 249 16ft 9kts
14-Nov-20 19:05 34.425412 -119.859644 263 669ft 95kts
14-Nov-20 19:06 34.418049 -119.895007 263 1543ft 126kts
14-Nov-20 19:07 34.389677 -119.906479 152 2443ft 142kts
14-Nov-20 19:08 34.353631 -119.885485 152 3241ft 146kts
14-Nov-20 19:09 34.317081 -119.864005 152 4024ft 146kts
14-Nov-20 19:10 34.297817 -119.830643 75 4785ft 125kts
14-Nov-20 19:11 34.299124 -119.785119 85 5016ft 147kts
14-Nov-20 19:12 34.297145 -119.734967 87 5009ft 150kts
14-Nov-20 19:13 34.294520 -119.684498 87 5009ft 150kts
14-Nov-20 19:14 34.291784 -119.634104 88 5010ft 150kts
14-Nov-20 19:15 34.288992 -119.583788 88 5009ft 150kts
14-Nov-20 19:16 34.286183 -119.533517 88 5010ft 149kts
14-Nov-20 19:17 34.283357 -119.483180 88 5009ft 149kts
14-Nov-20 19:18 34.280540 -119.433013 88 5010ft 149kts
14-Nov-20 19:19 34.277646 -119.382613 88 5009ft 150kts
14-Nov-20 19:20 34.274757 -119.332220 89 5008ft 149kts
14-Nov-20 19:21 34.271841 -119.282032 89 5009ft 150kts
14-Nov-20 19:22 34.268907 -119.231602 90 5009ft 150kts
14-Nov-20 19:23 34.265964 -119.181301 90 5009ft 149kts
14-Nov-20 19:24 34.262988 -119.131127 90 5009ft 149kts
14-Nov-20 19:25 34.260003 -119.080931 90 5009ft 149kts
14-Nov-20 19:26 34.257006 -119.030730 91 5010ft 149kts
14-Nov-20 19:27 34.253967 -118.980558 91 5027ft 149kts
14-Nov-20 19:28 34.250937 -118.930530 91 5045ft 149kts
14-Nov-20 19:29 34.247874 -118.880591 92 5062ft 149kts
14-Nov-20 19:30 34.244896 -118.831978 92 5438ft 136kts
14-Nov-20 19:31 34.242090 -118.786523 92 5975ft 136kts
14-Nov-20 19:32 34.239300 -118.741717 92 6573ft 133kts
14-Nov-20 19:33 34.236486 -118.696841 92 7090ft 134kts
14-Nov-20 19:34 34.233645 -118.651655 92 7579ft 135kts
14-Nov-20 19:35 34.230752 -118.605922 92 8023ft 136kts
14-Nov-20 19:36 34.227905 -118.561593 92 8631ft 127kts
14-Nov-20 19:37 34.225162 -118.518478 92 9074ft 136kts
14-Nov-20 19:38 34.217053 -118.470813 108 9064ft 150kts
14-Nov-20 19:39 34.202721 -118.423374 108 9055ft 150kts
14-Nov-20 19:40 34.188320 -118.375874 109 9047ft 150kts
14-Nov-20 19:41 34.173958 -118.328603 109 9040ft 149kts
14-Nov-20 19:42 34.159568 -118.281335 109 9032ft 150kts
14-Nov-20 19:43 34.126884 -118.252930 154 9018ft 150kts
14-Nov-20 19:44 34.089168 -118.230992 155 8998ft 150kts
14-Nov-20 19:45 34.051496 -118.209196 155 8991ft 150kts
14-Nov-20 19:46 34.013850 -118.187456 155 8990ft 150kts
14-Nov-20 19:47 33.976265 -118.165776 155 8991ft 149kts
14-Nov-20 19:48 33.938605 -118.144073 155 8991ft 149kts
14-Nov-20 19:49 33.901034 -118.122451 155 8991ft 149kts
14-Nov-20 19:51 33.863571 -118.100910 155 8999ft 149kts
14-Nov-20 19:52 33.825999 -118.079330 155 8999ft 149kts
14-Nov-20 19:53 33.788498 -118.057809 155 9000ft 149kts
14-Nov-20 19:54 33.757687 -118.024475 135 9001ft 149kts
14-Nov-20 19:55 33.727998 -117.989373 135 9002ft 149kts
14-Nov-20 19:56 33.698246 -117.954215 135 9004ft 149kts
14-Nov-20 19:57 33.668581 -117.919192 135 9005ft 149kts
14-Nov-20 19:58 33.638787 -117.884044 135 9007ft 149kts
14-Nov-20 19:59 33.609087 -117.849037 135 9009ft 149kts
14-Nov-20 20:00 33.579525 -117.814245 135 9008ft 149kts
14-Nov-20 20:01 33.549970 -117.779493 135 9006ft 148kts
14-Nov-20 20:02 33.520441 -117.744777 135 9004ft 148kts
14-Nov-20 20:03 33.490887 -117.710064 135 9003ft 148kts
14-Nov-20 20:04 33.461324 -117.675403 135 9001ft 148kts
14-Nov-20 20:05 33.431741 -117.640766 135 9000ft 148kts
14-Nov-20 20:06 33.401866 -117.605826 135 8776ft 160kts
14-Nov-20 20:07 33.367257 -117.568426 147 8004ft 171kts
14-Nov-20 20:08 33.325770 -117.538088 148 6993ft 176kts
14-Nov-20 20:09 33.283783 -117.507929 148 5823ft 174kts
14-Nov-20 20:09 33.249655 -117.483510 147 5016ft 169kts
14-Nov-20 20:11 33.207214 -117.453078 146 4987ft 144kts
14-Nov-20 20:11 33.178750 -117.432692 146 4990ft 142kts
14-Nov-20 20:13 33.139083 -117.404366 146 4990ft 142kts
14-Nov-20 20:13 33.110615 -117.384071 146 4962ft 143kts
14-Nov-20 20:14 33.076608 -117.359816 146 4960ft 142kts
14-Nov-20 20:15 33.043212 -117.334769 124 4952ft 140kts
14-Nov-20 20:16 33.045531 -117.290390 79 4959ft 137kts
14-Nov-20 20:17 33.052033 -117.250181 78 4996ft 136kts
14-Nov-20 20:18 33.059549 -117.203967 78 4624ft 152kts
14-Nov-20 20:19 33.067763 -117.153254 78 3930ft 157kts
14-Nov-20 20:20 33.066727 -117.103165 98 3563ft 150kts
14-Nov-20 20:21 33.059998 -117.057132 97 3193ft 127kts
14-Nov-20 20:22 33.054433 -117.019081 97 3201ft 110kts
14-Nov-20 20:23 33.049188 -116.983244 100 2627ft 113kts
14-Nov-20 20:24 33.044132 -116.950302 103 1985ft 91kts
14-Nov-20 20:25 33.039998 -116.920936 101 1404ft 73kts
14-Nov-20 20:26 33.039165 -116.912456 17 1398ft 0kts
14-Nov-20 20:27 33.039157 -116.910539 100 1398ft 14kts
14-Nov-20 20:28 33.039203 -116.908464 96 1398ft 0kts

Navigation Log

Ident Type
Flight plan parsing failed, navigation log unavailable